Time;durP1;ratioP1;P1;durP2;ratioP2;P2;SDS_P1;SDS_P2;PMS_P1;PMS_P2;Temp;Humidity;BMP_temperature;BMP_pressure;BME280_temperature;BME280_humidity;BME280_pressure;Samples;Min_cycle;Max_cycle;Signal;HPM_P1;HPM_P2
2022/11/10 00:00:46;;;;;;;11.30;3.40;;;10.90;99.90;;;;;;5092017;28;20567;-77
2022/11/10 00:03:34;;;;;;;9.70;2.47;;;10.90;99.90;;;;;;5086571;28;20445;-76
2022/11/10 00:06:20;;;;;;;5.87;2.77;;;10.80;99.90;;;;;;5091068;28;20465;-77
2022/11/10 00:09:05;;;;;;;6.10;2.30;;;10.80;99.90;;;;;;5090361;28;20458;-77
2022/11/10 00:11:51;;;;;;;4.50;2.67;;;10.80;99.90;;;;;;5083019;28;20437;-77
2022/11/10 00:17:40;;;;;;;5.90;2.73;;;10.70;99.90;;;;;;5083472;28;20523;-77
2022/11/10 00:20:26;;;;;;;6.63;2.57;;;10.70;99.90;;;;;;5086570;28;20484;-76
2022/11/10 00:23:12;;;;;;;6.87;2.30;;;10.70;99.90;;;;;;5087325;28;20416;-76
2022/11/10 00:25:57;;;;;;;6.57;2.33;;;10.80;99.90;;;;;;5085844;28;20511;-75
2022/11/10 00:28:43;;;;;;;5.00;2.67;;;10.80;99.90;;;;;;5093238;28;20575;-77
2022/11/10 00:31:29;;;;;;;3.53;2.37;;;10.70;99.90;;;;;;5083101;28;20417;-76
2022/11/10 00:34:16;;;;;;;12.50;3.70;;;10.70;99.90;;;;;;5085725;28;21085;-75
2022/11/10 00:37:03;;;;;;;8.53;2.43;;;10.70;99.90;;;;;;5085438;28;20565;-77
2022/11/10 00:39:49;;;;;;;8.70;2.80;;;10.60;99.90;;;;;;5089577;28;20913;-76
2022/11/10 00:42:34;;;;;;;3.00;2.23;;;10.60;99.90;;;;;;5083398;28;20424;-76
2022/11/10 00:45:20;;;;;;;6.80;3.33;;;10.50;99.90;;;;;;5088223;28;20441;-75
2022/11/10 00:48:06;;;;;;;7.20;2.80;;;10.50;99.90;;;;;;5084016;28;20515;-77
2022/11/10 00:50:51;;;;;;;5.17;2.70;;;10.50;99.90;;;;;;5082884;28;20424;-77
2022/11/10 00:53:39;;;;;;;4.33;2.17;;;10.30;99.90;;;;;;5088192;28;20444;-75
2022/11/10 00:56:25;;;;;;;4.83;2.87;;;10.10;99.90;;;;;;5093789;28;20412;-77
2022/11/10 00:59:10;;;;;;;5.17;2.47;;;10.20;99.90;;;;;;5084998;28;20891;-76
2022/11/10 01:01:56;;;;;;;5.60;2.53;;;10.20;99.90;;;;;;5084607;28;20419;-76
2022/11/10 01:04:41;;;;;;;5.30;3.03;;;10.20;99.90;;;;;;5089702;28;20414;-75
2022/11/10 01:07:27;;;;;;;3.60;1.70;;;10.20;99.90;;;;;;5095587;28;20469;-75
2022/11/10 01:10:14;;;;;;;6.53;2.73;;;10.20;99.90;;;;;;5093413;28;20424;-75
2022/11/10 01:13:00;;;;;;;9.03;2.70;;;10.20;99.90;;;;;;5089590;28;20564;-76
2022/11/10 01:15:45;;;;;;;5.50;2.40;;;10.30;99.90;;;;;;5091009;28;20447;-77
2022/11/10 01:18:31;;;;;;;4.93;2.50;;;10.20;99.90;;;;;;5088621;28;20556;-77
2022/11/10 01:21:17;;;;;;;9.73;2.57;;;10.20;99.90;;;;;;5085146;28;20441;-77
2022/11/10 01:24:03;;;;;;;5.40;2.67;;;10.10;99.90;;;;;;5095003;28;20416;-73
2022/11/10 01:26:50;;;;;;;10.70;2.90;;;10.10;99.90;;;;;;5089202;28;20486;-76
2022/11/10 01:29:35;;;;;;;7.80;3.07;;;10.10;99.90;;;;;;5093533;28;20978;-75
2022/11/10 01:32:21;;;;;;;9.80;3.40;;;10.00;99.90;;;;;;5095311;28;20428;-75
2022/11/10 01:35:07;;;;;;;6.60;2.80;;;9.90;99.90;;;;;;5093595;28;20437;-76
2022/11/10 01:37:53;;;;;;;8.67;3.10;;;9.90;99.90;;;;;;5093031;28;20571;-75
2022/11/10 01:40:38;;;;;;;5.23;3.07;;;9.90;99.90;;;;;;5086711;28;21031;-75
2022/11/10 01:43:26;;;;;;;8.30;2.90;;;9.90;99.90;;;;;;5098253;28;20558;-77
2022/11/10 01:46:13;;;;;;;6.83;2.77;;;9.80;99.90;;;;;;5098237;28;20421;-77
2022/11/10 01:49:01;;;;;;;4.10;3.33;;;9.90;99.90;;;;;;5089462;28;20925;-76
2022/11/10 01:51:50;;;;;;;5.17;2.50;;;9.80;99.90;;;;;;5093799;28;20437;-76
2022/11/10 01:54:40;;;;;;;9.13;2.67;;;9.80;99.90;;;;;;5113546;28;20432;-76
2022/11/10 01:57:26;;;;;;;9.03;2.47;;;9.70;99.90;;;;;;5111196;28;20590;-76
2022/11/10 02:00:14;;;;;;;9.10;3.17;;;9.70;99.90;;;;;;5096470;28;20937;-77
2022/11/10 02:03:04;;;;;;;5.20;3.00;;;9.70;99.90;;;;;;5102623;28;20456;-76
2022/11/10 02:05:50;;;;;;;6.10;2.90;;;9.60;99.90;;;;;;5094068;28;20475;-75
2022/11/10 02:08:36;;;;;;;6.57;3.30;;;9.40;99.90;;;;;;5106021;28;20636;-75
2022/11/10 02:11:22;;;;;;;7.40;2.93;;;9.30;99.90;;;;;;5092113;28;20513;-77
2022/11/10 02:14:08;;;;;;;5.33;2.90;;;9.30;99.90;;;;;;5099327;28;20425;-76
2022/11/10 02:16:55;;;;;;;8.20;3.20;;;9.30;99.90;;;;;;5106630;28;20412;-76
2022/11/10 02:19:42;;;;;;;7.30;3.60;;;9.20;99.90;;;;;;5086101;28;20855;-74
2022/11/10 02:22:29;;;;;;;7.13;3.10;;;9.30;99.90;;;;;;5097215;28;20505;-75
2022/11/10 02:25:19;;;;;;;8.13;2.80;;;9.20;99.90;;;;;;5097055;28;20417;-75
2022/11/10 02:28:05;;;;;;;5.13;2.50;;;9.30;99.90;;;;;;5105952;28;20953;-74
2022/11/10 02:30:51;;;;;;;6.10;2.70;;;9.10;99.90;;;;;;5083971;28;20486;-74
2022/11/10 02:33:36;;;;;;;7.33;3.07;;;9.20;99.90;;;;;;5108249;28;20403;-75
2022/11/10 02:36:22;;;;;;;3.70;2.57;;;9.30;99.90;;;;;;5102535;28;20417;-74
2022/11/10 02:39:09;;;;;;;10.37;2.87;;;9.20;99.90;;;;;;5103932;28;20771;-75
2022/11/10 02:41:55;;;;;;;6.00;2.80;;;9.20;99.90;;;;;;5093580;28;20504;-75
2022/11/10 02:44:40;;;;;;;3.57;2.70;;;9.20;99.90;;;;;;5095823;28;20420;-74
2022/11/10 02:47:25;;;;;;;6.37;2.77;;;9.10;99.90;;;;;;5097230;28;20543;-74
2022/11/10 02:50:11;;;;;;;5.17;2.30;;;8.90;99.90;;;;;;5088968;28;20958;-75
2022/11/10 02:52:57;;;;;;;6.37;3.07;;;8.90;99.90;;;;;;5095509;28;20438;-75
2022/11/10 02:55:44;;;;;;;13.03;3.67;;;9.00;99.90;;;;;;5101378;28;20446;-74
2022/11/10 02:58:30;;;;;;;6.03;3.07;;;9.10;99.90;;;;;;5099292;28;20554;-74
2022/11/10 03:01:15;;;;;;;6.10;3.30;;;9.10;99.90;;;;;;5093405;28;20563;-75
2022/11/10 03:04:01;;;;;;;10.97;2.93;;;9.20;99.90;;;;;;5101151;28;20395;-74
2022/11/10 03:06:47;;;;;;;5.80;2.97;;;9.10;99.90;;;;;;5096327;28;20418;-74
2022/11/10 03:09:32;;;;;;;8.77;2.90;;;9.00;99.90;;;;;;5096601;28;21005;-74
2022/11/10 03:12:19;;;;;;;10.63;3.37;;;9.00;99.90;;;;;;5092966;28;20794;-75
2022/11/10 03:15:05;;;;;;;3.37;2.43;;;9.00;99.90;;;;;;5083293;28;21073;-74
2022/11/10 03:17:51;;;;;;;7.03;2.73;;;8.90;99.90;;;;;;5094958;28;20413;-74
2022/11/10 03:20:36;;;;;;;13.23;2.87;;;8.90;99.90;;;;;;5091348;28;20448;-74
2022/11/10 03:23:22;;;;;;;5.67;2.80;;;8.80;99.90;;;;;;5092215;28;20970;-74
2022/11/10 03:26:08;;;;;;;7.40;3.20;;;8.90;99.90;;;;;;5092418;28;20540;-74
2022/11/10 03:28:55;;;;;;;8.70;3.10;;;8.90;99.90;;;;;;5088567;28;20548;-75
2022/11/10 03:31:40;;;;;;;4.60;2.80;;;8.80;99.90;;;;;;5098409;28;20421;-75
2022/11/10 03:34:26;;;;;;;6.77;2.77;;;8.60;99.90;;;;;;5092583;28;20454;-75
2022/11/10 03:37:11;;;;;;;12.13;4.43;;;8.60;99.90;;;;;;5091818;28;21048;-74
2022/11/10 03:39:57;;;;;;;12.67;2.93;;;8.50;99.90;;;;;;5085603;28;20801;-74
2022/11/10 03:42:44;;;;;;;4.80;3.03;;;8.50;99.90;;;;;;5084404;28;20495;-75
2022/11/10 03:45:30;;;;;;;6.27;2.50;;;8.50;99.90;;;;;;5091902;28;20446;-75
2022/11/10 03:48:16;;;;;;;5.57;2.67;;;8.50;99.90;;;;;;5105431;28;20546;-74
2022/11/10 03:51:02;;;;;;;3.97;2.83;;;8.60;99.90;;;;;;5095777;28;20430;-74
2022/11/10 03:53:47;;;;;;;6.57;2.43;;;8.60;99.90;;;;;;5102745;28;20965;-74
2022/11/10 03:56:33;;;;;;;5.93;2.37;;;8.70;99.90;;;;;;5104050;28;20418;-74
2022/11/10 03:59:18;;;;;;;10.20;4.27;;;8.70;99.90;;;;;;5087031;28;20526;-74
2022/11/10 04:02:05;;;;;;;4.80;3.30;;;8.70;99.90;;;;;;5093693;28;20430;-74
2022/11/10 04:11:01;;;;;;;3.97;2.70;;;8.80;99.90;;;;;;5074145;28;20404;-74
2022/11/10 04:16:50;;;;;;;18.40;4.23;;;8.60;99.90;;;;;;5097045;28;20473;-74
2022/11/10 04:19:37;;;;;;;6.20;3.40;;;8.50;99.90;;;;;;5084009;28;20594;-75
2022/11/10 04:25:22;;;;;;;5.10;3.57;;;8.30;99.90;;;;;;5088907;28;20480;-75
2022/11/10 04:28:07;;;;;;;7.87;2.83;;;8.20;99.90;;;;;;5082846;28;20477;-74
2022/11/10 04:30:53;;;;;;;5.50;3.23;;;8.10;99.90;;;;;;5097318;28;20445;-74
2022/11/10 04:33:40;;;;;;;11.03;3.07;;;8.10;99.90;;;;;;5095013;28;20957;-75
2022/11/10 04:36:29;;;;;;;6.67;3.13;;;8.10;99.90;;;;;;5089627;28;20465;-75
2022/11/10 04:39:14;;;;;;;4.73;3.27;;;8.10;99.90;;;;;;5079281;28;20469;-74
2022/11/10 04:42:00;;;;;;;4.73;2.60;;;8.20;99.90;;;;;;5085389;28;20544;-74
2022/11/10 04:44:45;;;;;;;5.70;2.87;;;8.20;99.90;;;;;;5091868;28;20440;-75
2022/11/10 04:47:31;;;;;;;5.60;3.17;;;8.30;99.90;;;;;;5091047;28;20519;-75
2022/11/10 04:50:17;;;;;;;16.03;3.10;;;8.40;99.90;;;;;;5101437;28;20804;-74
2022/11/10 04:53:04;;;;;;;7.13;3.10;;;8.30;99.90;;;;;;5094051;28;20414;-74
2022/11/10 04:55:49;;;;;;;5.83;3.30;;;8.40;99.90;;;;;;5103961;28;20417;-75
2022/11/10 04:58:34;;;;;;;9.73;3.90;;;8.40;99.90;;;;;;5090381;28;20476;-74
2022/11/10 05:01:22;;;;;;;3.97;2.50;;;8.30;99.90;;;;;;5100998;28;20408;-74
2022/11/10 05:04:07;;;;;;;6.83;3.50;;;8.20;99.90;;;;;;5101365;28;20456;-74
2022/11/10 05:06:53;;;;;;;11.10;4.03;;;8.10;99.90;;;;;;5084453;28;20446;-74
2022/11/10 05:09:40;;;;;;;4.60;3.50;;;8.00;99.90;;;;;;5086961;28;20421;-74
2022/11/10 05:12:26;;;;;;;9.03;3.83;;;8.00;99.90;;;;;;5101596;28;20437;-75
2022/11/10 05:15:12;;;;;;;5.70;3.20;;;8.00;99.90;;;;;;5105012;28;20407;-75
2022/11/10 05:17:58;;;;;;;4.47;3.17;;;7.80;99.90;;;;;;5085849;28;21044;-74
2022/11/10 05:20:43;;;;;;;8.00;3.47;;;7.90;99.90;;;;;;5085751;28;20412;-75
2022/11/10 05:23:38;;;;;;;10.00;3.57;;;7.90;99.90;;;;;;5092256;28;20449;-74
2022/11/10 05:26:25;;;;;;;11.60;3.40;;;7.80;99.90;;;;;;5084628;28;20551;-74
2022/11/10 05:29:10;;;;;;;5.03;3.50;;;7.80;99.90;;;;;;5096892;28;20445;-74
2022/11/10 05:31:56;;;;;;;4.87;3.10;;;7.90;99.90;;;;;;5095777;28;20459;-75
2022/11/10 05:34:42;;;;;;;6.10;3.93;;;7.80;99.90;;;;;;5085444;28;20413;-74
2022/11/10 05:37:27;;;;;;;12.63;3.87;;;7.90;99.90;;;;;;5079595;28;20482;-74
2022/11/10 05:40:13;;;;;;;4.30;3.20;;;7.90;99.90;;;;;;5090575;28;20502;-74
2022/11/10 05:43:00;;;;;;;7.17;4.33;;;8.00;99.90;;;;;;5091629;28;20433;-75
2022/11/10 05:45:46;;;;;;;11.80;4.90;;;7.90;99.90;;;;;;5084951;28;20519;-74
2022/11/10 05:48:31;;;;;;;6.87;3.87;;;7.90;99.90;;;;;;5086367;28;20506;-75
2022/11/10 05:51:17;;;;;;;10.63;4.17;;;7.90;99.90;;;;;;5099946;28;20419;-74
2022/11/10 05:54:03;;;;;;;4.73;4.17;;;7.90;99.90;;;;;;5103101;28;20488;-75
2022/11/10 05:56:48;;;;;;;4.83;3.87;;;8.00;99.90;;;;;;5085563;28;20481;-75
2022/11/10 05:59:35;;;;;;;6.57;4.40;;;8.00;99.90;;;;;;5107659;28;20487;-74
2022/11/10 06:02:21;;;;;;;6.30;3.90;;;7.90;99.90;;;;;;5114351;28;20432;-74
2022/11/10 06:05:07;;;;;;;6.27;4.20;;;7.80;99.90;;;;;;5112540;28;20976;-73
2022/11/10 06:07:53;;;;;;;6.50;5.10;;;7.80;99.90;;;;;;5083493;28;20581;-74
2022/11/10 06:10:39;;;;;;;11.20;4.10;;;7.80;99.90;;;;;;5104798;28;20388;-74
2022/11/10 06:13:24;;;;;;;4.33;3.60;;;7.80;99.90;;;;;;5104091;28;20437;-72
2022/11/10 06:16:11;;;;;;;9.00;3.53;;;7.80;99.90;;;;;;5098905;28;20453;-75
2022/11/10 06:18:56;;;;;;;6.33;4.20;;;7.80;99.90;;;;;;5093261;28;20465;-75
2022/11/10 06:21:42;;;;;;;5.40;3.70;;;7.70;99.90;;;;;;5096748;28;20415;-75
2022/11/10 06:24:27;;;;;;;6.43;3.90;;;7.70;99.90;;;;;;5099472;28;20584;-74
2022/11/10 06:27:13;;;;;;;5.80;3.27;;;7.70;99.90;;;;;;5087114;28;20512;-74
2022/11/10 06:29:58;;;;;;;4.93;3.83;;;7.80;99.90;;;;;;5086405;28;20409;-74
2022/11/10 06:32:45;;;;;;;5.47;3.93;;;7.80;99.90;;;;;;5099700;28;20899;-75
2022/11/10 06:35:31;;;;;;;10.67;4.07;;;7.80;99.90;;;;;;5106873;28;20430;-75
2022/11/10 06:38:17;;;;;;;11.23;4.63;;;7.70;99.90;;;;;;5099574;28;20928;-75
2022/11/10 06:41:02;;;;;;;4.37;3.47;;;7.70;99.90;;;;;;5103720;28;20451;-74
2022/11/10 06:43:48;;;;;;;7.17;3.50;;;7.80;99.90;;;;;;5087505;28;20959;-74
2022/11/10 06:46:33;;;;;;;7.17;3.70;;;7.80;99.90;;;;;;5087030;28;20544;-74
2022/11/10 06:49:20;;;;;;;9.17;4.13;;;7.80;99.90;;;;;;5086595;28;20416;-74
2022/11/10 06:52:06;;;;;;;6.23;3.30;;;7.90;99.90;;;;;;5089160;28;20461;-74
2022/11/10 06:54:52;;;;;;;4.97;3.50;;;7.80;99.90;;;;;;5092701;28;20540;-74
2022/11/10 06:57:38;;;;;;;4.50;3.10;;;7.60;99.90;;;;;;5091154;28;20557;-74
2022/11/10 07:00:24;;;;;;;7.90;5.47;;;7.60;99.90;;;;;;5087023;28;20519;-74
2022/11/10 07:03:13;;;;;;;8.40;6.20;;;7.70;99.90;;;;;;5096049;28;20430;-73
2022/11/10 07:05:59;;;;;;;10.83;6.80;;;7.70;99.90;;;;;;5089771;28;20532;-74
2022/11/10 07:08:45;;;;;;;13.40;6.90;;;7.70;99.90;;;;;;5098082;28;20842;-74
2022/11/10 07:11:31;;;;;;;21.00;6.90;;;7.70;99.90;;;;;;5088972;28;20556;-75
2022/11/10 07:14:16;;;;;;;9.93;6.17;;;7.70;99.90;;;;;;5088088;28;20480;-74
2022/11/10 07:17:02;;;;;;;8.87;6.27;;;7.90;99.90;;;;;;5082375;28;20523;-74
2022/11/10 07:19:47;;;;;;;11.33;7.73;;;7.90;99.90;;;;;;5089351;28;20444;-75
2022/11/10 07:22:34;;;;;;;9.97;6.67;;;7.80;99.90;;;;;;5092996;28;20590;-74
2022/11/10 07:25:20;;;;;;;8.10;5.93;;;7.90;99.90;;;;;;5088550;28;20416;-75
2022/11/10 07:28:09;;;;;;;8.30;5.33;;;8.00;99.90;;;;;;5095423;28;20469;-75
2022/11/10 07:30:54;;;;;;;10.50;5.90;;;8.00;99.90;;;;;;5082751;28;20442;-74
2022/11/10 07:33:40;;;;;;;9.80;5.03;;;8.00;99.90;;;;;;5091285;28;20572;-75
2022/11/10 07:36:28;;;;;;;9.30;5.13;;;8.00;99.90;;;;;;5096756;28;20449;-74
2022/11/10 07:39:15;;;;;;;12.90;5.70;;;8.00;99.90;;;;;;5097296;28;20482;-75
2022/11/10 07:42:00;;;;;;;16.53;11.07;;;8.00;99.90;;;;;;5095503;28;20444;-75
2022/11/10 07:44:46;;;;;;;26.20;16.67;;;8.10;99.90;;;;;;5083652;28;20441;-75
2022/11/10 07:47:31;;;;;;;36.23;26.10;;;8.10;99.90;;;;;;5090716;28;20957;-75
2022/11/10 07:50:17;;;;;;;41.90;27.13;;;8.10;99.90;;;;;;5097543;28;20533;-74
2022/11/10 07:53:08;;;;;;;54.23;34.13;;;8.00;99.90;;;;;;5092194;28;20518;-75
2022/11/10 07:55:55;;;;;;;24.50;14.80;;;8.10;99.90;;;;;;5083068;28;20817;-74
2022/11/10 07:58:40;;;;;;;16.70;10.40;;;8.20;99.90;;;;;;5094911;28;20968;-74
2022/11/10 08:01:25;;;;;;;15.57;11.03;;;8.30;99.90;;;;;;5095839;28;20536;-74
2022/11/10 08:04:11;;;;;;;23.33;12.20;;;8.40;99.90;;;;;;5095876;28;20403;-74
2022/11/10 08:06:57;;;;;;;22.33;9.17;;;8.50;99.90;;;;;;5092197;28;20460;-75
2022/11/10 08:09:43;;;;;;;10.33;6.37;;;8.50;99.90;;;;;;5087582;28;20783;-74
2022/11/10 08:12:30;;;;;;;11.50;6.43;;;8.70;99.90;;;;;;5098540;28;20593;-74
2022/11/10 08:15:15;;;;;;;14.93;8.33;;;8.70;99.90;;;;;;5089305;28;20440;-75
2022/11/10 08:18:02;;;;;;;21.17;7.20;;;8.80;99.90;;;;;;5081970;28;20485;-74
2022/11/10 08:20:48;;;;;;;14.13;6.23;;;9.00;99.90;;;;;;5089954;28;20448;-76
2022/11/10 08:23:34;;;;;;;13.70;7.53;;;9.20;99.90;;;;;;5104519;28;20434;-76
2022/11/10 08:26:20;;;;;;;14.43;6.67;;;9.50;99.90;;;;;;5103703;28;20495;-76
2022/11/10 08:29:06;;;;;;;11.70;6.67;;;9.60;99.90;;;;;;5094077;28;20417;-76
2022/11/10 08:31:52;;;;;;;9.00;5.20;;;9.70;99.90;;;;;;5079788;28;20818;-76
2022/11/10 08:34:38;;;;;;;12.57;5.07;;;9.80;99.90;;;;;;5082639;28;20596;-74
2022/11/10 08:37:23;;;;;;;12.20;5.60;;;10.00;99.90;;;;;;5104760;28;20419;-77
2022/11/10 08:40:10;;;;;;;8.37;4.77;;;10.20;99.90;;;;;;5108449;28;20600;-76
2022/11/10 08:42:59;;;;;;;8.23;5.03;;;10.30;99.90;;;;;;5091836;28;20519;-76
2022/11/10 08:45:46;;;;;;;17.27;4.70;;;10.50;99.90;;;;;;5097116;28;20471;-74
2022/11/10 08:48:32;;;;;;;9.53;4.67;;;10.70;99.90;;;;;;5084423;28;20442;-74
2022/11/10 08:51:18;;;;;;;13.83;4.70;;;10.80;99.90;;;;;;5101723;28;20411;-74
2022/11/10 08:54:03;;;;;;;9.07;4.10;;;10.90;99.90;;;;;;5094697;28;20969;-77
2022/11/10 08:56:49;;;;;;;17.50;7.30;;;11.00;99.90;;;;;;5086155;28;21011;-77
2022/11/10 08:59:35;;;;;;;10.90;4.60;;;11.00;99.90;;;;;;5108024;28;20458;-76
2022/11/10 09:02:21;;;;;;;17.63;7.20;;;11.10;99.90;;;;;;5107738;28;20468;-77
2022/11/10 09:05:08;;;;;;;8.07;3.60;;;11.20;99.90;;;;;;5110743;28;20399;-76
2022/11/10 09:07:53;;;;;;;12.60;4.13;;;11.30;99.90;;;;;;5075396;28;20470;-76
2022/11/10 09:10:41;;;;;;;13.43;4.93;;;11.40;99.90;;;;;;5101990;28;20417;-76
2022/11/10 09:13:27;;;;;;;15.03;4.73;;;11.40;99.90;;;;;;5104170;28;20520;-76
2022/11/10 09:16:13;;;;;;;9.47;3.70;;;11.50;99.90;;;;;;5104035;28;20564;-74
2022/11/10 09:19:00;;;;;;;27.77;5.00;;;11.60;99.90;;;;;;5090556;28;20801;-77
2022/11/10 09:21:45;;;;;;;12.27;3.53;;;11.80;99.90;;;;;;5108241;28;20765;-76
2022/11/10 09:24:31;;;;;;;11.03;3.60;;;11.90;99.90;;;;;;5098059;28;20422;-76
2022/11/10 09:27:16;;;;;;;10.83;4.47;;;12.00;99.90;;;;;;5104527;28;20431;-77
2022/11/10 09:30:02;;;;;;;5.93;3.63;;;12.10;99.90;;;;;;5085481;28;20973;-77
2022/11/10 09:32:53;;;;;;;15.60;4.27;;;12.30;99.90;;;;;;5109460;28;20999;-76
2022/11/10 09:35:40;;;;;;;28.97;4.20;;;12.50;99.90;;;;;;5108891;28;20990;-76
2022/11/10 09:38:26;;;;;;;13.43;3.60;;;12.50;99.90;;;;;;5094995;28;20596;-77
2022/11/10 09:41:14;;;;;;;7.50;3.07;;;12.70;99.90;;;;;;5099950;28;20993;-77
2022/11/10 09:44:05;;;;;;;9.07;3.40;;;12.90;99.90;;;;;;5096928;28;20447;-77
2022/11/10 09:46:56;;;;;;;8.27;3.87;;;13.00;99.90;;;;;;5105089;28;20436;-76
2022/11/10 09:49:47;;;;;;;9.57;3.57;;;13.10;99.90;;;;;;5098448;28;20433;-75
2022/11/10 09:52:37;;;;;;;8.60;3.20;;;13.20;99.90;;;;;;5105000;28;20443;-76
2022/11/10 09:55:31;;;;;;;13.53;3.40;;;13.30;99.90;;;;;;5108832;28;20434;-77
2022/11/10 09:58:18;;;;;;;9.83;2.83;;;13.40;99.90;;;;;;5097432;28;20435;-76
2022/11/10 10:01:22;;;;;;;11.97;3.27;;;13.60;99.90;;;;;;5106977;28;20976;-77
2022/11/10 10:04:19;;;;;;;10.77;3.63;;;13.80;99.90;;;;;;5100971;28;20548;-76
2022/11/10 10:07:10;;;;;;;9.17;3.10;;;13.90;99.90;;;;;;5098730;28;20469;-76
2022/11/10 10:10:07;;;;;;;6.93;2.90;;;13.90;99.90;;;;;;5094900;28;20452;-74
2022/11/10 10:13:07;;;;;;;9.70;3.53;;;14.00;99.90;;;;;;5089794;28;20417;-76
2022/11/10 10:16:06;;;;;;;11.33;2.80;;;14.00;99.90;;;;;;5082035;28;20951;-76
2022/11/10 10:18:59;;;;;;;11.60;2.93;;;14.20;99.90;;;;;;5101221;28;20550;-76
2022/11/10 10:21:57;;;;;;;5.97;2.80;;;14.10;99.90;;;;;;5091847;28;20464;-76
2022/11/10 10:24:43;;;;;;;9.67;2.67;;;14.00;99.90;;;;;;5097823;28;20421;-75
2022/11/10 10:27:33;;;;;;;12.30;2.80;;;13.90;99.90;;;;;;5096275;28;20457;-77
2022/11/10 10:30:20;;;;;;;11.60;3.00;;;14.10;99.90;;;;;;5099438;28;20425;-76
2022/11/10 10:33:14;;;;;;;11.60;3.00;;;14.30;99.90;;;;;;5104632;28;20403;-77
2022/11/10 10:36:03;;;;;;;11.30;3.77;;;14.60;99.90;;;;;;5099596;28;20417;-77
2022/11/10 10:38:51;;;;;;;14.63;3.30;;;14.50;99.90;;;;;;5101897;28;20423;-77
2022/11/10 10:41:37;;;;;;;14.07;3.20;;;14.60;99.90;;;;;;5103419;28;20469;-77
2022/11/10 10:44:24;;;;;;;7.20;2.40;;;14.70;99.90;;;;;;5111384;28;20458;-77
2022/11/10 10:47:10;;;;;;;15.43;2.83;;;14.70;99.90;;;;;;5083195;28;20474;-76
2022/11/10 10:50:23;;;;;;;4.40;2.03;;;14.60;99.90;;;;;;5090944;28;20389;-76
2022/11/10 10:53:13;;;;;;;10.03;2.90;;;14.50;99.90;;;;;;5092154;28;20445;-76
2022/11/10 10:56:02;;;;;;;8.00;2.63;;;14.40;99.90;;;;;;5094997;28;20523;-76
2022/11/10 10:58:53;;;;;;;11.07;3.50;;;14.30;99.90;;;;;;5096071;28;20421;-75
2022/11/10 11:01:43;;;;;;;11.53;3.00;;;14.10;99.90;;;;;;5091663;28;20445;-77
2022/11/10 11:04:32;;;;;;;10.53;2.80;;;14.00;99.90;;;;;;5094069;28;20528;-76
2022/11/10 11:07:23;;;;;;;14.83;3.57;;;14.10;99.90;;;;;;5093519;28;20470;-76
2022/11/10 11:10:19;;;;;;;9.10;2.53;;;14.00;99.90;;;;;;5097774;28;20388;-77
2022/11/10 11:13:16;;;;;;;8.20;3.03;;;14.00;99.90;;;;;;5094557;28;20989;-76
2022/11/10 11:16:02;;;;;;;14.53;3.03;;;14.00;99.90;;;;;;5090288;28;20409;-76
2022/11/10 11:18:50;;;;;;;5.57;2.40;;;13.90;99.90;;;;;;5086419;28;20400;-76
2022/11/10 11:21:44;;;;;;;10.10;2.70;;;14.00;99.90;;;;;;5099720;28;20571;-76
2022/11/10 11:24:37;;;;;;;5.67;2.93;;;13.90;99.90;;;;;;5090515;28;20442;-76
2022/11/10 11:27:32;;;;;;;15.63;3.43;;;13.90;99.90;;;;;;5087067;28;21003;-76
2022/11/10 11:30:19;;;;;;;9.60;3.80;;;14.00;99.90;;;;;;5104676;28;20470;-76
2022/11/10 11:33:24;;;;;;;9.70;3.03;;;14.10;99.90;;;;;;5105853;28;20403;-76
2022/11/10 11:36:21;;;;;;;10.80;2.50;;;14.00;99.90;;;;;;5084883;28;20502;-75
2022/11/10 11:39:20;;;;;;;13.13;3.90;;;14.00;99.90;;;;;;5103644;28;20470;-77
2022/11/10 11:42:22;;;;;;;9.67;3.13;;;14.10;99.90;;;;;;5095868;28;20465;-76
2022/11/10 11:45:16;;;;;;;13.07;2.93;;;14.10;99.90;;;;;;5086705;28;20433;-76
2022/11/10 11:48:20;;;;;;;9.17;3.10;;;14.20;99.90;;;;;;5102418;28;20440;-76
2022/11/10 11:51:12;;;;;;;8.73;3.40;;;14.20;99.90;;;;;;5101963;28;20391;-76
2022/11/10 11:54:20;;;;;;;8.30;3.30;;;14.20;99.90;;;;;;5090266;28;20445;-76
2022/11/10 11:57:22;;;;;;;13.70;2.70;;;14.30;99.90;;;;;;5084353;28;20465;-76
2022/11/10 12:00:12;;;;;;;8.93;2.63;;;14.40;99.90;;;;;;5103685;28;20798;-75
2022/11/10 12:03:29;;;;;;;14.03;3.33;;;14.40;99.90;;;;;;5106653;28;20429;-75
2022/11/10 12:06:27;;;;;;;10.33;3.10;;;14.60;99.90;;;;;;5086993;28;20443;-76
2022/11/10 12:09:22;;;;;;;9.60;2.80;;;14.60;99.90;;;;;;5101549;28;20415;-76
2022/11/10 12:12:31;;;;;;;10.87;3.70;;;14.60;99.90;;;;;;5097063;28;20471;-76
2022/11/10 12:15:28;;;;;;;11.60;3.60;;;14.60;99.90;;;;;;5099602;28;20467;-77
2022/11/10 12:18:24;;;;;;;15.90;2.70;;;14.50;99.90;;;;;;5089756;28;20506;-75
2022/11/10 12:21:23;;;;;;;9.70;2.60;;;14.50;99.90;;;;;;5098421;28;20590;-77
2022/11/10 12:24:31;;;;;;;7.40;2.60;;;14.40;99.90;;;;;;5097088;28;20948;-76
2022/11/10 12:27:21;;;;;;;8.93;2.90;;;14.60;99.90;;;;;;5081317;28;20485;-74
2022/11/10 12:30:11;;;;;;;9.50;3.00;;;14.90;99.90;;;;;;5109132;28;20400;-76
2022/11/10 12:33:02;;;;;;;11.87;2.87;;;15.00;99.90;;;;;;5099891;28;20421;-76
2022/11/10 12:35:49;;;;;;;9.33;2.50;;;15.10;99.90;;;;;;5088567;28;20503;-76
2022/11/10 12:38:46;;;;;;;10.10;2.63;;;15.00;99.90;;;;;;5087787;28;20908;-76
2022/11/10 12:41:38;;;;;;;6.40;1.97;;;15.40;99.90;;;;;;5107059;28;20469;-76
2022/11/10 12:44:30;;;;;;;11.87;2.60;;;15.50;99.90;;;;;;5102784;28;20600;-76
2022/11/10 12:47:20;;;;;;;10.03;2.83;;;15.50;99.90;;;;;;5094236;28;20450;-76
2022/11/10 12:50:31;;;;;;;10.50;2.27;;;15.50;99.90;;;;;;5098446;28;20407;-77
2022/11/10 12:53:22;;;;;;;10.23;2.83;;;15.80;99.90;;;;;;5095125;28;20441;-74
2022/11/10 12:56:16;;;;;;;12.00;2.80;;;16.00;99.90;;;;;;5081452;28;20540;-76
2022/11/10 12:59:28;;;;;;;8.10;2.17;;;15.70;99.90;;;;;;5105057;28;20451;-75
2022/11/10 13:02:25;;;;;;;10.93;2.70;;;15.50;99.90;;;;;;5104877;28;20443;-76
2022/11/10 13:05:30;;;;;;;5.97;2.70;;;15.40;99.90;;;;;;5090604;28;20441;-76
2022/11/10 13:08:34;;;;;;;7.23;2.30;;;15.30;99.90;;;;;;5095904;28;20514;-77
2022/11/10 13:11:28;;;;;;;10.83;2.53;;;15.10;99.90;;;;;;5109551;28;20407;-77
2022/11/10 13:14:28;;;;;;;7.33;2.30;;;14.90;99.90;;;;;;5103415;28;20516;-76
2022/11/10 13:17:51;;;;;;;4.70;2.17;;;15.00;99.90;;;;;;5106458;28;20452;-76
2022/11/10 13:20:56;;;;;;;6.83;2.50;;;15.20;99.90;;;;;;5102673;28;20489;-76
2022/11/10 13:24:18;;;;;;;9.63;2.73;;;15.80;99.90;;;;;;5095894;28;21007;-77
2022/11/10 13:27:05;;;;;;;18.57;9.93;;;16.40;99.90;;;;;;5105796;28;20454;-76
2022/11/10 13:29:57;;;;;;;39.03;20.50;;;16.60;99.90;;;;;;5102417;28;20465;-76
2022/11/10 13:32:43;;;;;;;15.83;4.73;;;17.00;99.90;;;;;;5103589;28;20783;-77
2022/11/10 13:35:53;;;;;;;15.23;5.50;;;17.00;99.90;;;;;;5112389;28;20817;-77
2022/11/10 13:38:41;;;;;;;9.00;3.87;;;16.90;99.90;;;;;;5097515;28;21054;-76
2022/11/10 13:41:27;;;;;;;7.70;3.80;;;16.50;99.90;;;;;;5108272;28;20444;-76
2022/11/10 13:44:23;;;;;;;9.03;2.97;;;16.30;99.90;;;;;;5111786;28;20790;-76
2022/11/10 13:47:46;;;;;;;14.70;4.87;;;16.10;99.90;;;;;;5091471;28;20448;-76
2022/11/10 13:50:44;;;;;;;25.07;6.20;;;15.90;99.90;;;;;;5093459;28;20433;-75
2022/11/10 13:53:40;;;;;;;9.20;2.97;;;15.60;99.90;;;;;;5101685;28;20496;-75
2022/11/10 13:56:44;;;;;;;18.37;6.63;;;15.30;99.90;;;;;;5102388;28;20535;-75
2022/11/10 13:59:32;;;;;;;12.13;6.77;;;15.20;99.90;;;;;;5100517;28;20416;-76
2022/11/10 14:02:55;;;;;;;11.67;4.40;;;14.90;99.90;;;;;;5103726;28;20472;-76
2022/11/10 14:06:12;;;;;;;10.93;4.60;;;14.80;99.90;;;;;;5103805;28;20541;-74
2022/11/10 14:09:04;;;;;;;6.70;3.73;;;14.80;99.90;;;;;;5089456;28;20996;-76
2022/11/10 14:11:55;;;;;;;4.87;2.77;;;14.80;99.90;;;;;;5097901;28;20471;-76
2022/11/10 14:14:51;;;;;;;12.93;2.30;;;14.70;99.90;;;;;;5105793;28;20591;-76
2022/11/10 14:17:41;;;;;;;9.00;3.20;;;14.60;99.90;;;;;;5098193;28;20451;-75
2022/11/10 14:20:32;;;;;;;8.40;2.53;;;14.60;99.90;;;;;;5111405;28;20407;-76
2022/11/10 14:23:26;;;;;;;13.20;3.93;;;14.60;99.90;;;;;;5088259;28;20446;-76
2022/11/10 14:26:21;;;;;;;12.93;3.10;;;14.40;99.90;;;;;;5100317;28;20984;-76
2022/11/10 14:29:29;;;;;;;7.63;2.80;;;14.20;99.90;;;;;;5094113;28;20599;-75
2022/11/10 14:32:18;;;;;;;6.93;2.40;;;14.10;99.90;;;;;;5099221;28;20411;-76
2022/11/10 14:35:05;;;;;;;10.63;2.93;;;14.00;99.90;;;;;;5097994;28;20795;-76
2022/11/10 14:37:51;;;;;;;5.30;1.73;;;13.90;99.90;;;;;;5086732;28;20443;-76
2022/11/10 14:40:42;;;;;;;14.03;2.93;;;13.70;99.90;;;;;;5110366;28;20429;-75
2022/11/10 14:43:29;;;;;;;8.13;4.10;;;13.70;99.90;;;;;;5107002;28;20399;-76
2022/11/10 14:46:15;;;;;;;30.57;3.13;;;13.50;99.90;;;;;;5097962;28;20990;-76
2022/11/10 14:49:02;;;;;;;12.33;3.40;;;13.50;99.90;;;;;;5099790;28;20470;-76
2022/11/10 14:51:48;;;;;;;10.00;2.10;;;13.20;99.90;;;;;;5102244;28;20541;-74
2022/11/10 14:54:35;;;;;;;10.10;2.40;;;13.10;99.90;;;;;;5113120;28;20491;-76
2022/11/10 14:57:23;;;;;;;4.77;2.13;;;13.00;99.90;;;;;;5093659;28;20544;-76